Time;durP1;ratioP1;P1;durP2;ratioP2;P2;SDS_P1;SDS_P2;PMS_P1;PMS_P2;Temp;Humidity;BMP_temperature;BMP_pressure;BME280_temperature;BME280_humidity;BME280_pressure;Samples;Min_cycle;Max_cycle;Signal;HPM_P1;HPM_P2
2022/08/28 00:00:47;;;;;;;;;;;;;;;26.42;43.52;99287.28;2065327;28;19917;-66
2022/08/28 00:01:48;;;;;;;;;;;;;;;26.43;43.52;99277.91;2065734;28;19926;-65
2022/08/28 00:02:48;;;;;;;;;;;;;;;26.42;43.46;99279.00;2068230;28;19924;-65
2022/08/28 00:03:48;;;;;;;;;;;;;;;26.43;43.56;99277.91;2066800;28;20012;-65
2022/08/28 00:04:49;;;;;;;;;;;;;;;26.42;43.32;99273.47;2068534;28;19928;-66
2022/08/28 00:05:49;;;;;;;;;;;;;;;26.41;43.51;99277.31;2066659;28;19965;-65
2022/08/28 00:06:50;;;;;;;;;;;;;;;26.42;43.37;99281.75;2066869;28;20661;-65
2022/08/28 00:07:50;;;;;;;;;;;;;;;26.41;43.64;99280.09;2062686;28;19918;-65
2022/08/28 00:08:50;;;;;;;;;;;;;;;26.41;43.70;99280.09;2063880;28;19925;-65
2022/08/28 00:09:51;;;;;;;;;;;;;;;26.40;43.44;99272.84;2068439;28;19920;-66
2022/08/28 00:10:52;;;;;;;;;;;;;;;26.41;43.57;99274.56;2063593;28;19921;-67
2022/08/28 00:11:52;;;;;;;;;;;;;;;26.40;43.50;99264.56;2068979;28;20309;-65
2022/08/28 00:12:56;;;;;;;;;;;;;;;26.40;43.19;99267.31;2068979;28;20003;-66
2022/08/28 00:13:57;;;;;;;;;;;;;;;26.42;43.27;99278.16;2069425;28;19921;-65
2022/08/28 00:14:58;;;;;;;;;;;;;;;26.40;43.24;99278.38;2069279;28;19918;-66
2022/08/28 00:16:01;;;;;;;;;;;;;;;26.41;43.63;99274.56;2070642;28;19991;-65
2022/08/28 00:17:02;;;;;;;;;;;;;;;26.42;43.49;99275.41;2065271;28;20405;-67
2022/08/28 00:18:04;;;;;;;;;;;;;;;26.41;43.33;99274.56;2068972;28;19972;-65
2022/08/28 00:19:04;;;;;;;;;;;;;;;26.41;43.62;99277.31;2068581;28;19917;-66
2022/08/28 00:20:07;;;;;;;;;;;;;;;26.41;43.43;99269.03;2068475;28;19917;-65
2022/08/28 00:21:08;;;;;;;;;;;;;;;26.41;43.53;99274.56;2069225;28;19929;-66
2022/08/28 00:22:09;;;;;;;;;;;;;;;26.41;43.46;99274.56;2067768;28;19999;-65
2022/08/28 00:23:09;;;;;;;;;;;;;;;26.41;43.41;99274.56;2068964;28;19925;-67
2022/08/28 00:24:10;;;;;;;;;;;;;;;26.41;43.68;99277.31;2069055;28;20640;-65
2022/08/28 00:25:11;;;;;;;;;;;;;;;26.41;43.33;99280.09;2069976;28;19967;-65
2022/08/28 00:27:51;;;;;;;;;;;;;;;26.41;43.38;99274.56;2069891;28;19917;-65
2022/08/28 00:28:50;;;;;;;;;;;;;;;26.41;43.34;99269.03;2069641;28;19917;-65
2022/08/28 00:29:51;;;;;;;;;;;;;;;26.41;43.35;99269.03;2070484;28;19913;-65
2022/08/28 00:30:57;;;;;;;;;;;;;;;26.41;43.56;99263.50;2064483;28;19914;-66
2022/08/28 00:31:58;;;;;;;;;;;;;;;26.41;43.58;99271.78;2066422;28;20099;-65
2022/08/28 00:32:59;;;;;;;;;;;;;;;26.41;43.46;99269.03;2069217;28;20034;-65
2022/08/28 00:34:03;;;;;;;;;;;;;;;26.41;43.61;99263.50;2067616;28;19917;-65
2022/08/28 00:35:03;;;;;;;;;;;;;;;26.41;43.70;99269.03;2068558;28;19922;-65
2022/08/28 00:36:04;;;;;;;;;;;;;;;26.41;43.42;99266.25;2063785;28;20198;-66
2022/08/28 00:37:04;;;;;;;;;;;;;;;26.42;43.74;99269.88;2066236;28;19916;-66
2022/08/28 00:38:05;;;;;;;;;;;;;;;26.41;43.64;99269.03;2068795;28;19932;-66
2022/08/28 00:39:06;;;;;;;;;;;;;;;26.42;43.45;99267.09;2068645;28;19917;-65
2022/08/28 00:40:07;;;;;;;;;;;;;;;26.41;43.34;99273.69;2069357;28;19996;-65
2022/08/28 00:41:09;;;;;;;;;;;;;;;26.41;43.39;99271.78;2069779;28;19925;-65
2022/08/28 00:42:10;;;;;;;;;;;;;;;26.41;43.68;99274.56;2066783;28;19920;-65
2022/08/28 00:43:21;;;;;;;;;;;;;;;26.41;43.40;99265.38;2067933;28;19945;-65
2022/08/28 00:44:22;;;;;;;;;;;;;;;26.40;43.62;99275.59;2069676;28;19918;-66
2022/08/28 00:45:23;;;;;;;;;;;;;;;26.41;43.36;99269.03;2069187;28;20009;-66
2022/08/28 00:46:24;;;;;;;;;;;;;;;26.40;43.39;99272.00;2069316;28;19925;-64
2022/08/28 00:47:25;;;;;;;;;;;;;;;26.40;43.59;99266.47;2060870;28;20578;-65
2022/08/28 00:48:25;;;;;;;;;;;;;;;26.39;43.55;99268.41;2060365;28;20005;-65
2022/08/28 00:49:29;;;;;;;;;;;;;;;26.39;43.43;99275.84;2069852;28;19928;-65
2022/08/28 00:52:04;;;;;;;;;;;;;;;26.38;43.81;99274.97;2069063;28;19918;-66
2022/08/28 00:52:04;;;;;;;;;;;;;;;26.38;43.71;99268.59;2067369;28;20357;-66
2022/08/28 00:53:04;;;;;;;;;;;;;;;26.38;43.59;99268.59;2068727;28;20465;-65
2022/08/28 00:54:06;;;;;;;;;;;;;;;26.39;43.66;99270.31;2066321;28;19918;-65
2022/08/28 00:55:12;;;;;;;;;;;;;;;26.39;43.44;99270.31;2067386;28;19956;-65
2022/08/28 00:56:14;;;;;;;;;;;;;;;26.37;43.55;99270.53;2069258;28;19960;-65
2022/08/28 00:57:18;;;;;;;;;;;;;;;26.36;43.66;99266.06;2069130;28;19986;-65
2022/08/28 00:58:19;;;;;;;;;;;;;;;26.37;43.55;99265.00;2069240;28;19964;-65
2022/08/28 00:59:21;;;;;;;;;;;;;;;26.37;43.57;99267.75;2070211;28;19924;-65
2022/08/28 01:00:24;;;;;;;;;;;;;;;26.36;43.85;99266.06;2069367;28;19976;-65
2022/08/28 01:01:25;;;;;;;;;;;;;;;26.37;43.85;99267.75;2069764;28;19914;-65
2022/08/28 01:02:26;;;;;;;;;;;;;;;26.37;43.72;99270.53;2069596;28;19952;-65
2022/08/28 01:03:26;;;;;;;;;;;;;;;26.37;43.50;99272.44;2068818;28;19923;-64
2022/08/28 01:04:28;;;;;;;;;;;;;;;26.38;43.69;99274.13;2064516;28;20647;-65
2022/08/28 01:05:29;;;;;;;;;;;;;;;26.37;43.49;99267.75;2063421;28;19935;-65
2022/08/28 01:06:29;;;;;;;;;;;;;;;26.37;43.81;99267.75;2064543;28;19917;-65
2022/08/28 01:07:29;;;;;;;;;;;;;;;26.38;43.72;99274.13;2063990;28;19925;-65
2022/08/28 01:08:30;;;;;;;;;;;;;;;26.37;43.80;99276.03;2065996;28;20707;-65
2022/08/28 01:09:31;;;;;;;;;;;;;;;26.38;43.82;99280.50;2067695;28;20341;-65
2022/08/28 01:10:33;;;;;;;;;;;;;;;26.37;43.77;99273.28;2067519;28;19917;-64
2022/08/28 01:11:33;;;;;;;;;;;;;;;26.37;43.53;99273.28;2066630;28;19972;-65
2022/08/28 01:12:34;;;;;;;;;;;;;;;26.38;43.85;99274.13;2068261;28;19987;-64
2022/08/28 01:13:36;;;;;;;;;;;;;;;26.38;43.81;99274.13;2068789;28;19967;-65
2022/08/28 01:14:38;;;;;;;;;;;;;;;26.38;43.78;99280.50;2067943;28;19936;-65
2022/08/28 01:15:41;;;;;;;;;;;;;;;26.38;43.81;99280.50;2069197;28;20755;-65
2022/08/28 01:16:41;;;;;;;;;;;;;;;26.38;43.87;99280.50;2068565;28;19967;-64
2022/08/28 01:17:44;;;;;;;;;;;;;;;26.38;43.67;99279.66;2069542;28;19993;-65
2022/08/28 01:18:46;;;;;;;;;;;;;;;26.38;43.64;99287.94;2068611;28;19921;-68
2022/08/28 01:19:55;;;;;;;;;;;;;;;26.37;43.82;99278.81;2069430;28;20016;-66
2022/08/28 01:21:07;;;;;;;;;;;;;;;26.38;43.80;99279.66;2061512;28;19917;-65
2022/08/28 01:22:19;;;;;;;;;;;;;;;26.37;43.72;99281.56;2068765;28;20023;-65
2022/08/28 01:23:38;;;;;;;;;;;;;;;26.38;43.81;99287.94;2065780;28;19914;-65
2022/08/28 01:24:39;;;;;;;;;;;;;;;26.38;43.94;99282.41;2064518;28;19924;-65
2022/08/28 01:25:40;;;;;;;;;;;;;;;26.37;43.66;99278.81;2068710;28;20456;-66
2022/08/28 01:26:40;;;;;;;;;;;;;;;26.38;43.64;99283.25;2068930;28;19970;-66
2022/08/28 01:27:41;;;;;;;;;;;;;;;26.38;43.94;99283.25;2069468;28;19980;-65
2022/08/28 01:28:42;;;;;;;;;;;;;;;26.37;43.71;99276.03;2066925;28;19921;-65
2022/08/28 01:29:42;;;;;;;;;;;;;;;26.37;43.65;99278.81;2069562;28;19945;-66
2022/08/28 01:30:45;;;;;;;;;;;;;;;26.37;43.73;99277.97;2070644;28;19935;-66
2022/08/28 01:31:46;;;;;;;;;;;;;;;26.37;43.97;99280.72;2063425;28;19925;-66
2022/08/28 01:32:48;;;;;;;;;;;;;;;26.36;43.96;99276.25;2068245;28;19940;-66
2022/08/28 01:33:48;;;;;;;;;;;;;;;26.35;43.95;99280.94;2068134;28;20867;-65
2022/08/28 01:34:48;;;;;;;;;;;;;;;26.35;43.98;99280.94;2068337;28;19917;-66
2022/08/28 01:35:49;;;;;;;;;;;;;;;26.35;43.92;99275.41;2068415;28;20558;-66
2022/08/28 01:36:49;;;;;;;;;;;;;;;26.35;44.00;99278.16;2068635;28;19957;-66
2022/08/28 01:37:50;;;;;;;;;;;;;;;26.35;43.98;99280.94;2068663;28;19922;-67
2022/08/28 01:38:54;;;;;;;;;;;;;;;26.34;44.02;99279.25;2069946;28;19933;-68
2022/08/28 01:39:55;;;;;;;;;;;;;;;26.35;44.05;99288.38;2062165;28;19917;-66
2022/08/28 01:40:56;;;;;;;;;;;;;;;26.35;43.67;99280.94;2060548;28;19918;-68
2022/08/28 01:41:59;;;;;;;;;;;;;;;26.34;43.98;99284.78;2066308;28;19925;-66
2022/08/28 01:43:26;;;;;;;;;;;;;;;26.33;44.02;99280.31;2070141;28;19948;-67
2022/08/28 01:44:27;;;;;;;;;;;;;;;26.34;43.72;99290.31;2067443;28;19925;-67
2022/08/28 01:45:27;;;;;;;;;;;;;;;26.34;43.96;99289.47;2068859;28;20337;-66
2022/08/28 01:46:30;;;;;;;;;;;;;;;26.34;43.93;99279.25;2069655;28;19980;-66
2022/08/28 01:47:30;;;;;;;;;;;;;;;26.34;43.97;99278.41;2068833;28;19913;-66
2022/08/28 01:48:33;;;;;;;;;;;;;;;26.34;43.86;99283.94;2069662;28;19957;-66
2022/08/28 01:49:34;;;;;;;;;;;;;;;26.34;43.90;99279.25;2070235;28;19933;-66
2022/08/28 01:50:34;;;;;;;;;;;;;;;26.34;43.93;99279.25;2068331;28;20394;-66
2022/08/28 01:51:35;;;;;;;;;;;;;;;26.33;43.84;99277.53;2069229;28;19909;-66
2022/08/28 01:52:35;;;;;;;;;;;;;;;26.35;43.94;99280.09;2068795;28;20465;-66
2022/08/28 01:53:36;;;;;;;;;;;;;;;26.34;43.73;99284.78;2069854;28;20319;-67
2022/08/28 01:54:37;;;;;;;;;;;;;;;26.35;43.96;99283.69;2068377;28;19944;-66
2022/08/28 01:55:37;;;;;;;;;;;;;;;26.34;43.96;99290.31;2069837;28;19917;-66
2022/08/28 01:56:39;;;;;;;;;;;;;;;26.35;43.71;99286.47;2069516;28;19921;-67
2022/08/28 01:57:43;;;;;;;;;;;;;;;26.34;43.62;99284.78;2068704;28;20019;-66
2022/08/28 01:58:44;;;;;;;;;;;;;;;26.34;43.71;99284.78;2070399;28;19948;-66
2022/08/28 01:59:45;;;;;;;;;;;;;;;26.35;43.74;99283.69;2069228;28;19918;-66
2022/08/28 02:00:45;;;;;;;;;;;;;;;26.35;43.90;99286.47;2068914;28;19918;-66
2022/08/28 02:01:45;;;;;;;;;;;;;;;26.34;43.81;99287.53;2069984;28;20306;-65
2022/08/28 02:02:49;;;;;;;;;;;;;;;26.35;43.92;99289.22;2068889;28;19935;-66
2022/08/28 02:03:51;;;;;;;;;;;;;;;26.34;44.02;99287.53;2068462;28;19948;-65
2022/08/28 02:04:52;;;;;;;;;;;;;;;26.34;44.04;99283.94;2066391;28;19957;-66
2022/08/28 02:05:53;;;;;;;;;;;;;;;26.35;44.04;99286.47;2066287;28;20664;-66
2022/08/28 02:06:54;;;;;;;;;;;;;;;26.35;43.88;99280.09;2066663;28;19917;-66
2022/08/28 02:07:56;;;;;;;;;;;;;;;26.34;43.79;99279.25;2068617;28;21007;-68
2022/08/28 02:08:56;;;;;;;;;;;;;;;26.34;44.16;99284.78;2064966;28;20008;-66
2022/08/28 02:09:56;;;;;;;;;;;;;;;26.34;44.05;99281.16;2066763;28;19913;-66
2022/08/28 02:10:57;;;;;;;;;;;;;;;26.34;44.11;99279.25;2069179;28;19921;-66
2022/08/28 02:11:58;;;;;;;;;;;;;;;26.35;44.03;99277.34;2059434;28;19918;-66
2022/08/28 02:12:58;;;;;;;;;;;;;;;26.33;44.10;99277.53;2059989;28;19985;-66
2022/08/28 02:13:59;;;;;;;;;;;;;;;26.34;44.04;99279.25;2065623;28;19931;-66
2022/08/28 02:14:59;;;;;;;;;;;;;;;26.33;43.82;99280.31;2066612;28;20496;-66
2022/08/28 02:16:00;;;;;;;;;;;;;;;26.33;43.81;99276.69;2065147;28;19918;-67
2022/08/28 02:17:00;;;;;;;;;;;;;;;26.32;44.00;99281.38;2070068;28;19928;-66
2022/08/28 02:18:00;;;;;;;;;;;;;;;26.33;44.09;99283.06;2064221;28;19944;-67
2022/08/28 02:19:01;;;;;;;;;;;;;;;26.32;44.03;99286.06;2067428;28;19913;-66
2022/08/28 02:20:03;;;;;;;;;;;;;;;26.31;44.15;99285.19;2068455;28;19984;-67
2022/08/28 02:21:04;;;;;;;;;;;;;;;26.32;43.88;99286.91;2068023;28;19941;-66
2022/08/28 02:22:07;;;;;;;;;;;;;;;26.32;43.99;99286.91;2067616;28;20461;-66
2022/08/28 02:23:07;;;;;;;;;;;;;;;26.31;43.76;99290.72;2069428;28;20008;-66
2022/08/28 02:24:08;;;;;;;;;;;;;;;26.31;43.71;99290.72;2069525;28;19975;-65
2022/08/28 02:25:09;;;;;;;;;;;;;;;26.31;44.05;99290.72;2068841;28;20904;-66
2022/08/28 02:26:09;;;;;;;;;;;;;;;26.30;43.76;99291.78;2065733;28;20677;-66
2022/08/28 02:27:10;;;;;;;;;;;;;;;26.30;43.71;99291.78;2067260;28;19922;-67
2022/08/28 02:28:10;;;;;;;;;;;;;;;26.30;43.97;99294.56;2068242;28;20015;-66
2022/08/28 02:29:10;;;;;;;;;;;;;;;26.30;43.77;99289.03;2068039;28;20767;-66
2022/08/28 02:30:13;;;;;;;;;;;;;;;26.29;43.71;99285.44;2071186;28;19925;-66
2022/08/28 02:31:13;;;;;;;;;;;;;;;26.29;43.92;99288.19;2072992;28;19918;-66
2022/08/28 02:32:13;;;;;;;;;;;;;;;26.29;44.11;99288.19;2071242;28;20598;-66
2022/08/28 02:33:15;;;;;;;;;;;;;;;26.28;44.07;99286.47;2068807;28;19917;-67
2022/08/28 02:34:15;;;;;;;;;;;;;;;26.30;43.94;99289.03;2067976;28;19917;-66
2022/08/28 02:35:17;;;;;;;;;;;;;;;26.30;43.76;99289.03;2067911;28;19972;-66
2022/08/28 02:36:18;;;;;;;;;;;;;;;26.29;43.94;99293.72;2068512;28;19952;-66
2022/08/28 02:37:19;;;;;;;;;;;;;;;26.30;43.71;99294.56;2069244;28;19925;-66
2022/08/28 02:38:19;;;;;;;;;;;;;;;26.29;44.07;99299.25;2068337;28;19959;-66
2022/08/28 02:39:20;;;;;;;;;;;;;;;26.29;43.91;99293.72;2054541;28;20037;-67
2022/08/28 02:40:21;;;;;;;;;;;;;;;26.29;43.77;99290.09;2061904;28;20350;-67
2022/08/28 02:41:22;;;;;;;;;;;;;;;26.30;43.94;99294.56;2069094;28;19917;-66
2022/08/28 02:42:22;;;;;;;;;;;;;;;26.29;43.83;99293.72;2068091;28;20419;-66
2022/08/28 02:43:22;;;;;;;;;;;;;;;26.29;44.07;99288.19;2069121;28;20452;-67
2022/08/28 02:44:23;;;;;;;;;;;;;;;26.29;43.83;99285.44;2069187;28;19964;-66
2022/08/28 02:45:23;;;;;;;;;;;;;;;26.30;44.00;99294.56;2069301;28;19914;-66
2022/08/28 02:46:25;;;;;;;;;;;;;;;26.29;44.01;99293.72;2070118;28;19921;-66
2022/08/28 02:47:25;;;;;;;;;;;;;;;26.30;43.91;99294.56;2069873;28;19920;-66
2022/08/28 02:48:30;;;;;;;;;;;;;;;26.30;44.03;99294.56;2069255;28;20313;-66
2022/08/28 02:49:30;;;;;;;;;;;;;;;26.31;44.03;99296.25;2068143;28;19924;-66
2022/08/28 02:50:31;;;;;;;;;;;;;;;26.30;43.82;99289.03;2068011;28;19949;-66
2022/08/28 02:51:34;;;;;;;;;;;;;;;26.30;44.16;99289.88;2061592;28;19971;-66
2022/08/28 02:52:36;;;;;;;;;;;;;;;26.29;44.16;99293.72;2065710;28;19917;-66
2022/08/28 02:53:36;;;;;;;;;;;;;;;26.30;43.89;99291.78;2063837;28;19918;-66
2022/08/28 02:54:38;;;;;;;;;;;;;;;26.30;43.94;99291.78;2069229;28;20639;-66
2022/08/28 02:55:38;;;;;;;;;;;;;;;26.30;44.04;99289.88;2067524;28;19918;-66
2022/08/28 02:56:39;;;;;;;;;;;;;;;26.29;43.83;99290.94;2069368;28;20239;-66
2022/08/28 02:57:41;;;;;;;;;;;;;;;26.30;44.08;99289.03;2068296;28;19921;-66
2022/08/28 02:58:41;;;;;;;;;;;;;;;26.29;43.87;99287.34;2068910;28;20298;-66
2022/08/28 02:59:42;;;;;;;;;;;;;;;26.29;44.14;99292.88;2068577;28;19922;-66
2022/08/28 03:00:43;;;;;;;;;;;;;;;26.28;44.13;99288.38;2068704;28;20062;-66
2022/08/28 03:01:43;;;;;;;;;;;;;;;26.27;44.08;99293.06;2069376;28;20048;-66
2022/08/28 03:02:45;;;;;;;;;;;;;;;26.28;43.91;99291.16;2067839;28;20418;-66
2022/08/28 03:03:45;;;;;;;;;;;;;;;26.27;44.19;99290.31;2068645;28;19924;-66
2022/08/28 03:04:45;;;;;;;;;;;;;;;26.27;44.22;99290.31;2068718;28;19917;-66
2022/08/28 03:05:45;;;;;;;;;;;;;;;26.28;44.15;99296.69;2069839;28;19914;-66
2022/08/28 03:06:46;;;;;;;;;;;;;;;26.28;43.99;99296.69;2068926;28;20392;-67
2022/08/28 03:07:46;;;;;;;;;;;;;;;26.27;44.17;99295.00;2068585;28;19963;-66
2022/08/28 03:08:47;;;;;;;;;;;;;;;26.26;44.18;99299.69;2068480;28;19948;-67
2022/08/28 03:09:48;;;;;;;;;;;;;;;26.27;43.95;99300.53;2067496;28;19921;-66
2022/08/28 03:10:49;;;;;;;;;;;;;;;26.26;44.24;99298.81;2066690;28;20327;-66
2022/08/28 03:11:52;;;;;;;;;;;;;;;26.26;44.24;99296.03;2068511;28;19924;-67
2022/08/28 03:12:53;;;;;;;;;;;;;;;26.26;44.08;99298.81;2067816;28;19919;-66
2022/08/28 03:13:54;;;;;;;;;;;;;;;26.26;44.00;99304.31;2068264;28;20418;-66
2022/08/28 03:14:55;;;;;;;;;;;;;;;26.27;44.25;99303.28;2069105;28;20535;-66
2022/08/28 03:15:56;;;;;;;;;;;;;;;26.26;44.01;99302.44;2070302;28;19971;-66
2022/08/28 03:16:56;;;;;;;;;;;;;;;26.26;44.04;99296.91;2076096;28;20561;-66
2022/08/28 03:17:56;;;;;;;;;;;;;;;26.26;44.19;99309.84;2067448;28;19921;-67
2022/08/28 03:18:57;;;;;;;;;;;;;;;26.27;44.22;99308.81;2068321;28;20004;-67
2022/08/28 03:19:57;;;;;;;;;;;;;;;26.27;44.18;99306.03;2068310;28;20629;-66
2022/08/28 03:20:58;;;;;;;;;;;;;;;26.26;44.22;99309.84;2066985;28;19924;-66
2022/08/28 03:21:58;;;;;;;;;;;;;;;26.26;44.22;99304.31;2072409;28;20252;-68
2022/08/28 03:24:18;;;;;;;;;;;;;;;26.26;43.99;99294.16;2065709;28;19917;-67
2022/08/28 03:25:18;;;;;;;;;;;;;;;26.27;44.24;99308.81;2068277;28;19921;-66
2022/08/28 03:26:19;;;;;;;;;;;;;;;26.27;44.25;99295.00;2067769;28;19959;-66
2022/08/28 03:27:19;;;;;;;;;;;;;;;26.27;43.93;99300.53;2066698;28;19925;-66
2022/08/28 03:28:20;;;;;;;;;;;;;;;26.27;44.28;99300.53;2059895;28;19928;-66
2022/08/28 03:29:20;;;;;;;;;;;;;;;26.27;44.23;99306.03;2057174;28;19921;-66
2022/08/28 03:30:21;;;;;;;;;;;;;;;26.27;43.93;99300.53;2057332;28;19921;-66
2022/08/28 03:31:24;;;;;;;;;;;;;;;26.27;43.90;99306.03;2067212;28;19971;-65
2022/08/28 03:32:25;;;;;;;;;;;;;;;26.27;44.24;99308.81;2067588;28;20437;-65
2022/08/28 03:33:26;;;;;;;;;;;;;;;26.26;44.06;99305.19;2061190;28;20013;-65
2022/08/28 03:34:26;;;;;;;;;;;;;;;26.26;44.01;99307.97;2067644;28;20299;-65
2022/08/28 03:35:26;;;;;;;;;;;;;;;26.26;44.18;99298.81;2066392;28;20005;-65
2022/08/28 03:36:27;;;;;;;;;;;;;;;26.26;44.14;99309.84;2067779;28;19959;-65
2022/08/28 03:37:28;;;;;;;;;;;;;;;26.26;43.99;99304.31;2064873;28;19917;-66
2022/08/28 03:38:28;;;;;;;;;;;;;;;26.26;43.97;99298.81;2064307;28;19924;-66
2022/08/28 03:39:28;;;;;;;;;;;;;;;26.25;44.01;99302.66;2063129;28;19965;-67
2022/08/28 03:40:29;;;;;;;;;;;;;;;26.26;43.93;99298.81;2066251;28;20350;-66
2022/08/28 03:41:30;;;;;;;;;;;;;;;26.26;43.86;99296.03;2063861;28;20027;-66
2022/08/28 03:42:30;;;;;;;;;;;;;;;26.25;43.84;99302.66;2068666;28;20396;-66
2022/08/28 03:43:31;;;;;;;;;;;;;;;26.24;44.18;99301.81;2067141;28;20371;-66
2022/08/28 03:44:31;;;;;;;;;;;;;;;26.24;44.15;99300.97;2067541;28;19964;-66
2022/08/28 03:45:31;;;;;;;;;;;;;;;26.24;44.16;99295.44;2068596;28;19925;-66
2022/08/28 03:46:32;;;;;;;;;;;;;;;26.23;43.96;99297.31;2066875;28;19928;-66
2022/08/28 03:47:34;;;;;;;;;;;;;;;26.24;44.11;99300.97;2068895;28;19929;-66
2022/08/28 03:48:36;;;;;;;;;;;;;;;26.23;44.21;99299.25;2069883;28;20298;-66
2022/08/28 03:49:37;;;;;;;;;;;;;;;26.24;44.00;99306.47;2062832;28;19913;-66
2022/08/28 03:50:38;;;;;;;;;;;;;;;26.23;43.97;99307.53;2067846;28;19945;-66
2022/08/28 03:51:39;;;;;;;;;;;;;;;26.23;44.23;99304.78;2069447;28;20644;-66
2022/08/28 03:52:39;;;;;;;;;;;;;;;26.23;44.03;99304.78;2070101;28;19914;-67
2022/08/28 03:53:40;;;;;;;;;;;;;;;26.23;44.05;99307.53;2067129;28;19937;-67
2022/08/28 03:54:40;;;;;;;;;;;;;;;26.22;44.15;99303.94;2067623;28;20338;-66
2022/08/28 03:55:41;;;;;;;;;;;;;;;26.22;44.26;99300.31;2070562;28;19917;-66
2022/08/28 03:56:41;;;;;;;;;;;;;;;26.22;44.03;99303.94;2069615;28;19947;-66
2022/08/28 03:57:41;;;;;;;;;;;;;;;26.21;44.26;99307.78;2068816;28;20003;-67
2022/08/28 03:58:42;;;;;;;;;;;;;;;26.23;44.03;99315.81;2068729;28;20603;-66
2022/08/28 03:59:42;;;;;;;;;;;;;;;26.22;44.35;99308.59;2066187;28;20052;-66
2022/08/28 04:00:43;;;;;;;;;;;;;;;26.22;44.23;99308.59;2068308;28;19913;-66
2022/08/28 04:01:43;;;;;;;;;;;;;;;26.22;44.25;99308.59;2069485;28;19917;-67
2022/08/28 04:02:44;;;;;;;;;;;;;;;26.22;44.25;99311.38;2062600;28;19910;-68
2022/08/28 04:03:45;;;;;;;;;;;;;;;26.22;44.11;99314.13;2068097;28;19944;-66
2022/08/28 04:04:47;;;;;;;;;;;;;;;26.22;43.94;99320.50;2070022;28;19980;-66
2022/08/28 04:05:47;;;;;;;;;;;;;;;26.23;44.29;99310.28;2068766;28;20382;-66
2022/08/28 04:06:47;;;;;;;;;;;;;;;26.22;44.10;99314.97;2067650;28;19922;-66
2022/08/28 04:07:48;;;;;;;;;;;;;;;26.23;44.01;99315.81;2069791;28;20442;-66
2022/08/28 04:08:49;;;;;;;;;;;;;;;26.23;44.31;99315.81;2070241;28;19957;-66
2022/08/28 04:09:50;;;;;;;;;;;;;;;26.23;44.09;99315.81;2070983;28;19921;-67
2022/08/28 04:10:50;;;;;;;;;;;;;;;26.23;44.09;99318.59;2071727;28;19917;-66
2022/08/28 04:11:52;;;;;;;;;;;;;;;26.23;44.27;99315.81;2070819;28;20444;-66
2022/08/28 04:12:52;;;;;;;;;;;;;;;26.22;44.06;99314.13;2069259;28;19922;-66
2022/08/28 04:13:53;;;;;;;;;;;;;;;26.23;44.02;99321.34;2071179;28;19918;-66
2022/08/28 04:14:53;;;;;;;;;;;;;;;26.23;44.34;99321.34;2069646;28;19928;-67
2022/08/28 04:15:56;;;;;;;;;;;;;;;26.22;44.33;99314.13;2072193;28;19917;-64
2022/08/28 04:16:56;;;;;;;;;;;;;;;26.23;44.32;99318.59;2066636;28;19917;-67
2022/08/28 04:17:57;;;;;;;;;;;;;;;26.23;44.41;99315.81;2068227;28;20451;-66
2022/08/28 04:18:57;;;;;;;;;;;;;;;26.23;44.31;99318.59;2070916;28;20402;-66
2022/08/28 04:19:58;;;;;;;;;;;;;;;26.21;44.32;99317.94;2065271;28;19922;-67
2022/08/28 04:20:59;;;;;;;;;;;;;;;26.22;44.20;99319.66;2069297;28;19921;-66
2022/08/28 04:22:00;;;;;;;;;;;;;;;26.22;44.25;99319.66;2070550;28;19955;-66
2022/08/28 04:23:02;;;;;;;;;;;;;;;26.22;44.26;99306.69;2070967;28;20487;-66
2022/08/28 04:24:03;;;;;;;;;;;;;;;26.22;44.14;99314.13;2070167;28;19952;-66
2022/08/28 04:25:04;;;;;;;;;;;;;;;26.21;44.26;99317.94;2069376;28;20746;-66
2022/08/28 04:26:05;;;;;;;;;;;;;;;26.21;43.94;99320.72;2069459;28;19914;-67
2022/08/28 04:27:05;;;;;;;;;;;;;;;26.20;44.24;99319.03;2070592;28;19918;-67
2022/08/28 04:28:06;;;;;;;;;;;;;;;26.20;44.25;99321.78;2071384;28;19921;-66
2022/08/28 04:29:06;;;;;;;;;;;;;;;26.19;44.07;99325.59;2070320;28;19913;-65
2022/08/28 04:30:08;;;;;;;;;;;;;;;26.19;44.26;99326.47;2070114;28;19955;-66
2022/08/28 04:31:08;;;;;;;;;;;;;;;26.19;44.22;99320.06;2064216;28;19996;-66
2022/08/28 04:32:09;;;;;;;;;;;;;;;26.19;44.28;99325.59;2065671;28;19918;-66
2022/08/28 04:33:09;;;;;;;;;;;;;;;26.19;44.21;99320.06;2068528;28;19916;-66
2022/08/28 04:34:10;;;;;;;;;;;;;;;26.17;44.02;99331.34;2069409;28;19925;-66
2022/08/28 04:35:11;;;;;;;;;;;;;;;26.19;44.03;99328.34;2070912;28;20028;-66
2022/08/28 04:36:13;;;;;;;;;;;;;;;26.18;44.22;99335.78;2068744;28;19924;-66
2022/08/28 04:37:14;;;;;;;;;;;;;;;26.17;43.95;99336.03;2070462;28;19913;-65
2022/08/28 04:38:14;;;;;;;;;;;;;;;26.17;43.94;99333.28;2069279;28;19918;-66
2022/08/28 04:39:14;;;;;;;;;;;;;;;26.17;44.07;99330.50;2066149;28;20375;-66
2022/08/28 04:40:15;;;;;;;;;;;;;;;26.17;44.28;99330.50;2065244;28;19921;-66
2022/08/28 04:41:15;;;;;;;;;;;;;;;26.17;43.99;99330.50;2071463;28;20639;-67
2022/08/28 04:42:16;;;;;;;;;;;;;;;26.17;44.06;99336.03;2068696;28;19924;-66
2022/08/28 04:43:16;;;;;;;;;;;;;;;26.17;43.85;99341.56;2068301;28;20283;-67
2022/08/28 04:44:17;;;;;;;;;;;;;;;26.18;43.98;99337.72;2069890;28;19921;-66
2022/08/28 04:45:17;;;;;;;;;;;;;;;26.17;44.21;99333.28;2069413;28;19921;-66
2022/08/28 04:46:17;;;;;;;;;;;;;;;26.19;44.29;99339.41;2071862;28;19964;-67
2022/08/28 04:47:17;;;;;;;;;;;;;;;26.17;44.17;99327.75;2069988;28;19917;-67
2022/08/28 04:48:18;;;;;;;;;;;;;;;26.18;44.06;99335.78;2070679;28;20187;-67
2022/08/28 04:49:18;;;;;;;;;;;;;;;26.17;44.04;99338.78;2070077;28;19926;-66
2022/08/28 04:50:19;;;;;;;;;;;;;;;26.17;44.13;99338.78;2067189;28;20012;-65
2022/08/28 04:51:19;;;;;;;;;;;;;;;26.17;44.20;99330.50;2069849;28;19920;-67
2022/08/28 04:52:21;;;;;;;;;;;;;;;26.17;44.21;99331.34;2065151;28;19967;-66
2022/08/28 04:53:21;;;;;;;;;;;;;;;26.17;44.23;99344.31;2067283;28;19921;-66
2022/08/28 04:54:21;;;;;;;;;;;;;;;26.19;44.26;99340.28;2068068;28;19917;-66
2022/08/28 04:55:21;;;;;;;;;;;;;;;26.18;44.30;99344.09;2067175;28;19917;-66
2022/08/28 04:56:22;;;;;;;;;;;;;;;26.18;44.26;99343.25;2069034;28;20205;-66
2022/08/28 04:57:22;;;;;;;;;;;;;;;26.18;44.22;99340.47;2065503;28;19929;-66
2022/08/28 04:58:22;;;;;;;;;;;;;;;26.18;44.27;99341.31;2068330;28;19929;-67
2022/08/28 04:59:23;;;;;;;;;;;;;;;26.17;44.30;99349.84;2069551;28;19928;-66
2022/08/28 05:00:23;;;;;;;;;;;;;;;26.17;44.31;99350.69;2066939;28;19917;-65
2022/08/28 05:01:23;;;;;;;;;;;;;;;26.17;44.05;99349.84;2069230;28;19987;-66
2022/08/28 05:02:24;;;;;;;;;;;;;;;26.16;44.37;99353.66;2064978;28;20338;-67
2022/08/28 05:03:24;;;;;;;;;;;;;;;26.19;44.13;99353.22;2069727;28;19918;-67
2022/08/28 05:04:25;;;;;;;;;;;;;;;26.17;44.33;99355.38;2070116;28;19917;-67
2022/08/28 05:05:26;;;;;;;;;;;;;;;26.16;44.13;99354.50;2061827;28;19918;-66
2022/08/28 05:06:27;;;;;;;;;;;;;;;26.16;44.10;99356.41;2057912;28;19941;-66
2022/08/28 05:07:28;;;;;;;;;;;;;;;26.16;44.09;99350.88;2067634;28;19913;-67
2022/08/28 05:08:29;;;;;;;;;;;;;;;26.16;44.23;99353.66;2068824;28;19913;-66
2022/08/28 05:09:30;;;;;;;;;;;;;;;26.16;44.23;99362.78;2068438;28;19929;-66
2022/08/28 05:10:31;;;;;;;;;;;;;;;26.16;44.16;99359.19;2068627;28;19921;-66
2022/08/28 05:11:31;;;;;;;;;;;;;;;26.15;44.16;99363.00;2069947;28;20224;-67
2022/08/28 05:12:34;;;;;;;;;;;;;;;26.15;43.98;99363.00;2068164;28;19919;-67
2022/08/28 05:13:34;;;;;;;;;;;;;;;26.14;44.32;99361.28;2069119;28;19914;-66
2022/08/28 05:14:35;;;;;;;;;;;;;;;26.13;44.26;99365.97;2068892;28;20682;-66
2022/08/28 05:15:43;;;;;;;;;;;;;;;26.14;44.24;99366.81;2069435;28;19914;-67
2022/08/28 05:16:46;;;;;;;;;;;;;;;26.14;44.03;99370.44;2068280;28;19981;-65
2022/08/28 05:17:47;;;;;;;;;;;;;;;26.14;44.30;99372.34;2067471;28;19975;-67
2022/08/28 05:18:48;;;;;;;;;;;;;;;26.13;44.26;99370.66;2069570;28;20402;-67
2022/08/28 05:19:48;;;;;;;;;;;;;;;26.13;44.24;99367.91;2067883;28;20021;-66
2022/08/28 05:20:49;;;;;;;;;;;;;;;26.12;44.10;99367.06;2069509;28;19911;-66
2022/08/28 05:21:49;;;;;;;;;;;;;;;26.12;44.24;99372.56;2068665;28;19972;-66
2022/08/28 05:22:50;;;;;;;;;;;;;;;26.12;43.97;99371.72;2068169;28;19921;-66